createdAt,value
2023-05-09T00:00:43.521Z,0.00
2023-05-09T00:01:43.544Z,0.00
2023-05-09T00:02:43.618Z,0.00
2023-05-09T00:03:43.479Z,0.00
2023-05-09T00:04:42.547Z,0.00
2023-05-09T00:05:43.444Z,0.00
2023-05-09T00:06:43.420Z,0.00
2023-05-09T00:07:43.429Z,0.00
2023-05-09T00:08:43.401Z,0.00
2023-05-09T00:09:43.386Z,0.00
2023-05-09T00:10:43.383Z,0.00
2023-05-09T00:11:43.380Z,0.00
2023-05-09T00:12:43.380Z,0.00
2023-05-09T00:13:43.331Z,0.00
2023-05-09T00:14:43.323Z,0.00
2023-05-09T00:15:43.327Z,0.00
2023-05-09T00:16:43.314Z,0.00
2023-05-09T00:17:43.308Z,0.00
2023-05-09T00:18:43.270Z,0.00
2023-05-09T00:19:43.248Z,0.00
2023-05-09T00:20:43.258Z,0.00
2023-05-09T00:21:43.229Z,0.00
2023-05-09T00:22:43.213Z,0.00
2023-05-09T00:23:43.202Z,0.00
2023-05-09T00:24:43.177Z,0.00
2023-05-09T00:25:43.167Z,0.00
2023-05-09T00:26:43.179Z,0.00
2023-05-09T00:27:43.161Z,0.00
2023-05-09T00:28:43.119Z,0.00
2023-05-09T00:29:43.121Z,0.00
2023-05-09T00:30:43.105Z,0.00
2023-05-09T00:31:43.138Z,0.00
2023-05-09T00:32:43.133Z,0.00
2023-05-09T00:33:43.083Z,0.00
2023-05-09T00:34:43.047Z,0.00
2023-05-09T00:35:43.048Z,0.00
2023-05-09T00:36:43.017Z,0.00
2023-05-09T00:37:42.999Z,0.00
2023-05-09T00:38:42.986Z,0.00
2023-05-09T00:39:42.983Z,0.00
2023-05-09T00:40:42.980Z,0.00
2023-05-09T00:41:42.955Z,0.00
2023-05-09T00:42:42.935Z,0.00
2023-05-09T00:43:42.921Z,0.00
2023-05-09T00:44:42.911Z,0.00
2023-05-09T00:45:42.945Z,0.00
2023-05-09T00:46:42.903Z,0.00
2023-05-09T00:47:42.909Z,0.00
2023-05-09T00:48:42.866Z,0.00
2023-05-09T00:49:41.913Z,0.00
2023-05-09T00:50:42.821Z,0.00
2023-05-09T00:51:42.802Z,0.00
2023-05-09T00:52:42.790Z,0.00
2023-05-09T00:53:42.780Z,0.00
2023-05-09T00:54:42.788Z,0.00
2023-05-09T00:55:42.752Z,0.00
2023-05-09T00:56:42.738Z,0.00
2023-05-09T00:57:42.735Z,0.00
2023-05-09T00:58:42.705Z,0.00
2023-05-09T00:59:42.707Z,0.00
2023-05-09T01:00:42.685Z,0.00
2023-05-09T01:01:42.699Z,0.00
2023-05-09T01:02:42.754Z,0.00
2023-05-09T01:03:42.735Z,0.00
2023-05-09T01:04:42.658Z,0.00
2023-05-09T01:05:42.648Z,0.00
2023-05-09T01:06:42.614Z,0.00
2023-05-09T01:07:42.647Z,0.00
2023-05-09T01:08:42.599Z,0.00
2023-05-09T01:09:42.572Z,0.00
2023-05-09T01:10:42.545Z,0.00
2023-05-09T01:11:42.537Z,0.00
2023-05-09T01:12:42.553Z,0.00
2023-05-09T01:13:42.529Z,0.00
2023-05-09T01:14:41.076Z,0.00
2023-05-09T01:15:42.535Z,0.00
2023-05-09T01:16:42.483Z,0.00
2023-05-09T01:17:42.495Z,0.00
2023-05-09T01:18:42.468Z,0.00
2023-05-09T01:19:42.436Z,0.00
2023-05-09T01:20:42.431Z,0.00
2023-05-09T01:21:42.426Z,0.00
2023-05-09T01:22:42.407Z,0.00
2023-05-09T01:23:42.406Z,0.00
2023-05-09T01:24:42.353Z,0.00
2023-05-09T01:25:42.380Z,0.00
2023-05-09T01:26:42.346Z,0.00
2023-05-09T01:27:40.983Z,0.00
2023-05-09T01:28:42.325Z,0.00
2023-05-09T01:29:42.316Z,0.00
2023-05-09T01:30:42.287Z,0.00
2023-05-09T01:31:42.316Z,0.00
2023-05-09T01:32:42.322Z,0.00
2023-05-09T01:33:42.228Z,0.00
2023-05-09T01:34:42.224Z,0.00
2023-05-09T01:35:42.210Z,0.00
2023-05-09T01:36:42.206Z,0.00
2023-05-09T01:37:42.184Z,0.00
2023-05-09T01:38:42.169Z,0.00
2023-05-09T01:39:42.161Z,0.00
2023-05-09T01:40:42.151Z,0.00
2023-05-09T01:41:42.127Z,0.00
2023-05-09T01:42:42.124Z,0.00
2023-05-09T01:43:42.133Z,0.00
2023-05-09T01:44:42.098Z,0.00
2023-05-09T01:45:42.095Z,0.00
2023-05-09T01:46:42.076Z,0.00
2023-05-09T01:47:42.073Z,0.00
2023-05-09T01:48:42.050Z,0.00
2023-05-09T01:49:42.028Z,0.00
2023-05-09T01:50:42.016Z,0.00
2023-05-09T01:51:43.773Z,0.00
2023-05-09T01:52:41.976Z,0.00
2023-05-09T01:53:40.521Z,0.00
2023-05-09T01:54:41.983Z,0.00
2023-05-09T01:55:41.954Z,0.00
2023-05-09T01:56:41.915Z,0.00
2023-05-09T01:57:41.917Z,0.00
2023-05-09T01:58:41.920Z,0.00
2023-05-09T01:59:41.885Z,0.00
2023-05-09T02:00:41.932Z,0.00
2023-05-09T02:01:41.854Z,0.00
2023-05-09T02:02:41.999Z,0.00
2023-05-09T02:03:41.832Z,0.00
2023-05-09T02:04:41.842Z,0.00
2023-05-09T02:05:41.818Z,0.00
2023-05-09T02:06:41.784Z,0.00
2023-05-09T02:07:41.763Z,0.00
2023-05-09T02:08:41.776Z,0.00
2023-05-09T02:09:41.761Z,0.00
2023-05-09T02:10:41.722Z,0.00
2023-05-09T02:11:41.712Z,0.00
2023-05-09T02:12:41.754Z,0.00
2023-05-09T02:13:41.707Z,0.00
2023-05-09T02:14:41.684Z,0.00
2023-05-09T02:15:41.668Z,0.00
2023-05-09T02:16:41.697Z,0.00
2023-05-09T02:17:41.693Z,0.00
2023-05-09T02:18:41.642Z,0.00
2023-05-09T02:19:41.630Z,0.00
2023-05-09T02:20:41.591Z,0.00
2023-05-09T02:21:41.577Z,0.00
2023-05-09T02:22:41.579Z,0.00
2023-05-09T02:23:41.572Z,0.00
2023-05-09T02:24:41.535Z,0.00
2023-05-09T02:25:41.522Z,0.00
2023-05-09T02:26:41.509Z,0.00
2023-05-09T02:27:41.504Z,0.00
2023-05-09T02:28:41.487Z,0.00
2023-05-09T02:29:41.463Z,0.00
2023-05-09T02:30:41.457Z,0.00
2023-05-09T02:31:41.557Z,0.00
2023-05-09T02:32:41.484Z,0.00
2023-05-09T02:33:41.414Z,0.00
2023-05-09T02:34:41.406Z,0.00
2023-05-09T02:35:41.383Z,0.00
2023-05-09T02:36:41.384Z,0.00
2023-05-09T02:37:41.361Z,0.00
2023-05-09T02:38:41.346Z,0.00
2023-05-09T02:39:41.353Z,0.00
2023-05-09T02:40:41.311Z,0.00
2023-05-09T02:41:41.330Z,0.00
2023-05-09T02:42:41.293Z,0.00
2023-05-09T02:43:41.289Z,0.00
2023-05-09T02:44:41.248Z,0.00
2023-05-09T02:45:41.243Z,0.00
2023-05-09T02:46:41.244Z,0.00
2023-05-09T02:47:41.316Z,0.00
2023-05-09T02:48:41.211Z,0.00
2023-05-09T02:49:41.211Z,0.00
2023-05-09T02:50:40.713Z,0.00
2023-05-09T02:51:41.187Z,0.00
2023-05-09T02:52:41.159Z,0.00
2023-05-09T02:53:41.140Z,0.00
2023-05-09T02:54:41.136Z,0.00
2023-05-09T02:55:41.125Z,0.00
2023-05-09T02:56:41.107Z,0.00
2023-05-09T02:57:41.067Z,0.00
2023-05-09T02:58:41.066Z,0.00
2023-05-09T02:59:41.049Z,0.00
2023-05-09T03:00:41.043Z,0.00
2023-05-09T03:01:41.030Z,0.00
2023-05-09T03:02:41.103Z,0.00
2023-05-09T03:03:41.024Z,0.00
2023-05-09T03:04:41.021Z,0.00
2023-05-09T03:05:40.990Z,0.00
2023-05-09T03:06:39.981Z,0.00
2023-05-09T03:07:40.960Z,0.00
2023-05-09T03:08:40.913Z,0.00
2023-05-09T03:09:41.428Z,0.00
2023-05-09T03:10:40.924Z,0.00
2023-05-09T03:11:40.904Z,0.00
2023-05-09T03:12:40.921Z,0.00
2023-05-09T03:13:40.869Z,0.00
2023-05-09T03:14:40.860Z,0.00
2023-05-09T03:15:40.866Z,0.00
2023-05-09T03:16:40.818Z,0.00
2023-05-09T03:17:39.359Z,0.00
2023-05-09T03:18:40.799Z,0.00
2023-05-09T03:19:40.800Z,0.00
2023-05-09T03:20:40.766Z,0.00
2023-05-09T03:21:40.750Z,0.00
2023-05-09T03:22:39.684Z,0.00
2023-05-09T03:23:40.723Z,0.00
2023-05-09T03:24:40.751Z,0.00
2023-05-09T03:25:40.738Z,0.00
2023-05-09T03:26:40.711Z,0.00
2023-05-09T03:27:40.668Z,0.00
2023-05-09T03:28:40.668Z,0.00
2023-05-09T03:29:40.668Z,0.00
2023-05-09T03:30:40.636Z,0.00
2023-05-09T03:31:40.648Z,0.00
2023-05-09T03:32:40.620Z,0.00
2023-05-09T03:33:40.596Z,0.00
2023-05-09T03:34:40.602Z,0.00
2023-05-09T03:35:40.567Z,0.00
2023-05-09T03:36:40.577Z,0.00
2023-05-09T03:37:40.546Z,0.00
2023-05-09T03:38:40.547Z,0.00
2023-05-09T03:39:40.518Z,0.00
2023-05-09T03:40:40.507Z,0.00
2023-05-09T03:41:40.483Z,0.00
2023-05-09T03:42:40.469Z,0.00
2023-05-09T03:43:40.473Z,0.00
2023-05-09T03:44:40.451Z,0.00
2023-05-09T03:45:40.426Z,0.00
2023-05-09T03:46:39.083Z,0.00
2023-05-09T03:47:40.435Z,0.00
2023-05-09T03:48:40.404Z,0.00
2023-05-09T03:49:39.872Z,0.00
2023-05-09T03:50:40.373Z,0.00
2023-05-09T03:51:42.010Z,0.00
2023-05-09T03:52:40.328Z,0.00
2023-05-09T03:53:40.309Z,0.00
2023-05-09T03:54:40.318Z,5.62
2023-05-09T03:55:40.295Z,5.62
2023-05-09T03:56:38.820Z,5.62
2023-05-09T03:57:40.266Z,5.62
2023-05-09T03:58:40.250Z,5.62
2023-05-09T03:59:40.250Z,5.62
2023-05-09T04:00:40.230Z,11.25
2023-05-09T04:01:40.412Z,11.25
2023-05-09T04:02:40.253Z,11.25
2023-05-09T04:03:40.249Z,11.25
2023-05-09T04:04:40.167Z,16.88
2023-05-09T04:05:40.910Z,16.88
2023-05-09T04:06:40.149Z,16.88
2023-05-09T04:07:40.129Z,16.88
2023-05-09T04:08:40.114Z,16.88
2023-05-09T04:09:40.097Z,22.50
2023-05-09T04:10:38.795Z,22.50
2023-05-09T04:11:40.069Z,22.50
2023-05-09T04:12:40.115Z,28.12
2023-05-09T04:13:40.055Z,28.12
2023-05-09T04:14:40.053Z,33.75
2023-05-09T04:15:40.021Z,33.75
2023-05-09T04:16:40.063Z,39.38
2023-05-09T04:17:38.583Z,45.00
2023-05-09T04:18:40.014Z,45.00
2023-05-09T04:19:39.972Z,50.62
2023-05-09T04:20:39.937Z,56.25
2023-05-09T04:21:39.934Z,56.25
2023-05-09T04:22:39.903Z,61.88
2023-05-09T04:23:39.904Z,61.88
2023-05-09T04:24:39.893Z,67.50
2023-05-09T04:25:39.864Z,73.12
2023-05-09T04:26:39.868Z,73.12
2023-05-09T04:27:39.871Z,78.75
2023-05-09T04:28:39.876Z,84.38
2023-05-09T04:29:39.830Z,84.38
2023-05-09T04:30:39.826Z,90.00
2023-05-09T04:31:39.845Z,90.00
2023-05-09T04:32:39.831Z,95.62
2023-05-09T04:33:39.813Z,95.62
2023-05-09T04:34:39.750Z,101.25
2023-05-09T04:35:38.351Z,101.25
2023-05-09T04:36:39.724Z,95.62
2023-05-09T04:37:39.756Z,95.62
2023-05-09T04:38:39.722Z,95.62
2023-05-09T04:39:39.719Z,101.25
2023-05-09T04:40:39.911Z,101.25
2023-05-09T04:41:39.660Z,101.25
2023-05-09T04:42:39.669Z,101.25
2023-05-09T04:43:39.620Z,95.62
2023-05-09T04:44:39.612Z,95.62
2023-05-09T04:45:39.592Z,101.25
2023-05-09T04:46:39.696Z,106.88
2023-05-09T04:47:39.595Z,106.88
2023-05-09T04:48:39.558Z,112.50
2023-05-09T04:49:39.542Z,112.50
2023-05-09T04:50:39.552Z,118.12
2023-05-09T04:51:39.526Z,118.12
2023-05-09T04:52:39.515Z,123.75
2023-05-09T04:53:39.498Z,123.75
2023-05-09T04:54:39.500Z,123.75
2023-05-09T04:55:39.460Z,129.38
2023-05-09T04:56:39.457Z,129.38
2023-05-09T04:57:39.441Z,129.38
2023-05-09T04:58:39.423Z,129.38
2023-05-09T04:59:39.403Z,129.38
2023-05-09T05:00:39.406Z,135.00
2023-05-09T05:01:39.415Z,135.00
2023-05-09T05:02:39.398Z,135.00
2023-05-09T05:03:39.354Z,140.62
2023-05-09T05:04:39.398Z,140.62
2023-05-09T05:05:39.464Z,146.25
2023-05-09T05:06:39.314Z,146.25
2023-05-09T05:07:39.300Z,146.25
2023-05-09T05:08:39.271Z,151.88
2023-05-09T05:09:39.292Z,151.88
2023-05-09T05:10:39.270Z,157.50
2023-05-09T05:12:39.314Z,168.75
2023-05-09T05:13:39.209Z,174.38
2023-05-09T05:14:39.204Z,180.00
2023-05-09T05:15:39.199Z,185.62
2023-05-09T05:16:39.249Z,191.25
2023-05-09T05:17:38.248Z,202.50
2023-05-09T05:18:39.158Z,208.12
2023-05-09T05:19:39.137Z,213.75
2023-05-09T05:20:39.135Z,219.38
2023-05-09T05:21:39.116Z,230.62
2023-05-09T05:22:39.115Z,236.25
2023-05-09T05:23:39.093Z,241.88
2023-05-09T05:24:39.098Z,253.12
2023-05-09T05:25:39.065Z,258.75
2023-05-09T05:26:39.060Z,270.00
2023-05-09T05:27:39.020Z,270.00
2023-05-09T05:28:39.010Z,281.25
2023-05-09T05:29:39.033Z,286.88
2023-05-09T05:30:38.977Z,292.50
2023-05-09T05:31:39.143Z,292.50
2023-05-09T05:32:38.984Z,298.12
2023-05-09T05:33:38.938Z,298.12
2023-05-09T05:34:38.940Z,303.75
2023-05-09T05:35:38.912Z,303.75
2023-05-09T05:36:38.895Z,309.38
2023-05-09T05:37:38.917Z,315.00
2023-05-09T05:38:39.172Z,315.00
2023-05-09T05:39:38.882Z,320.62
2023-05-09T05:40:38.861Z,320.62
2023-05-09T05:41:38.822Z,326.25
2023-05-09T05:42:38.841Z,331.88
2023-05-09T05:43:37.394Z,331.88
2023-05-09T05:44:38.818Z,337.50
2023-05-09T05:45:38.848Z,343.12
2023-05-09T05:46:38.771Z,348.75
2023-05-09T05:47:38.758Z,354.38
2023-05-09T05:48:38.733Z,354.38
2023-05-09T05:49:38.731Z,360.00
2023-05-09T05:50:38.712Z,354.38
2023-05-09T05:51:38.753Z,354.38
2023-05-09T05:52:38.675Z,348.75
2023-05-09T05:53:38.677Z,348.75
2023-05-09T05:54:38.657Z,360.00
2023-05-09T05:55:38.634Z,365.62
2023-05-09T05:56:38.622Z,388.12
2023-05-09T05:57:38.600Z,405.00
2023-05-09T05:58:38.600Z,421.88
2023-05-09T05:59:38.580Z,433.12
2023-05-09T06:00:38.620Z,450.00
2023-05-09T06:01:38.620Z,461.25
2023-05-09T06:02:38.741Z,461.25
2023-05-09T06:03:38.099Z,500.62
2023-05-09T06:04:38.505Z,517.50
2023-05-09T06:05:38.508Z,523.12
2023-05-09T06:06:38.473Z,523.12
2023-05-09T06:07:38.475Z,517.50
2023-05-09T06:08:38.476Z,511.88
2023-05-09T06:09:38.438Z,506.25
2023-05-09T06:10:38.419Z,500.62
2023-05-09T06:11:38.403Z,489.38
2023-05-09T06:12:38.418Z,495.00
2023-05-09T06:13:38.384Z,489.38
2023-05-09T06:14:38.365Z,472.50
2023-05-09T06:15:38.358Z,461.25
2023-05-09T06:16:38.357Z,461.25
2023-05-09T06:17:38.423Z,483.75
2023-05-09T06:18:38.313Z,500.62
2023-05-09T06:19:38.300Z,500.62
2023-05-09T06:20:38.284Z,489.38
2023-05-09T06:21:38.294Z,489.38
2023-05-09T06:22:38.300Z,500.62
2023-05-09T06:23:44.674Z,517.50
2023-05-09T06:24:39.233Z,551.25
2023-05-09T06:25:38.230Z,596.25
2023-05-09T06:26:38.231Z,658.12
2023-05-09T06:27:38.197Z,680.62
2023-05-09T06:28:38.176Z,736.88
2023-05-09T06:29:38.163Z,810.00
2023-05-09T06:30:38.150Z,928.12
2023-05-09T06:31:38.210Z,945.00
2023-05-09T06:32:38.148Z,990.00
2023-05-09T06:33:36.676Z,1102.50
2023-05-09T06:34:36.658Z,961.88
2023-05-09T06:35:38.107Z,832.50
2023-05-09T06:36:38.102Z,967.50
2023-05-09T06:37:38.053Z,945.00
2023-05-09T06:38:38.047Z,635.62
2023-05-09T06:39:38.022Z,669.38
2023-05-09T06:40:38.012Z,697.50
2023-05-09T06:41:38.022Z,714.38
2023-05-09T06:42:37.990Z,753.75
2023-05-09T06:43:37.973Z,810.00
2023-05-09T06:44:37.511Z,843.75
2023-05-09T06:45:38.009Z,877.50
2023-05-09T06:46:38.134Z,686.25
2023-05-09T06:47:37.929Z,590.62
2023-05-09T06:48:37.902Z,534.38
2023-05-09T06:49:37.896Z,511.88
2023-05-09T06:50:37.898Z,528.75
2023-05-09T06:51:36.436Z,568.12
2023-05-09T06:52:37.846Z,652.50
2023-05-09T06:53:37.833Z,663.75
2023-05-09T06:54:37.825Z,658.12
2023-05-09T06:55:37.811Z,646.88
2023-05-09T06:56:36.858Z,646.88
2023-05-09T06:57:37.786Z,641.25
2023-05-09T06:58:37.775Z,618.75
2023-05-09T06:59:37.762Z,601.88
2023-05-09T07:00:37.746Z,596.25
2023-05-09T07:01:37.772Z,585.00
2023-05-09T07:02:37.807Z,551.25
2023-05-09T07:03:37.707Z,506.25
2023-05-09T07:04:37.761Z,472.50
2023-05-09T07:05:37.185Z,444.38
2023-05-09T07:06:37.674Z,410.62
2023-05-09T07:07:37.660Z,405.00
2023-05-09T07:08:37.648Z,416.25
2023-05-09T07:09:37.661Z,444.38
2023-05-09T07:10:37.616Z,483.75
2023-05-09T07:11:37.594Z,489.38
2023-05-09T07:12:37.585Z,483.75
2023-05-09T07:13:37.575Z,495.00
2023-05-09T07:14:37.561Z,523.12
2023-05-09T07:15:41.801Z,731.25
2023-05-09T07:16:38.612Z,922.50
2023-05-09T07:17:37.570Z,748.12
2023-05-09T07:18:37.506Z,714.38
2023-05-09T07:19:37.488Z,787.50
2023-05-09T07:20:37.476Z,984.38
2023-05-09T07:21:37.468Z,832.50
2023-05-09T07:22:37.890Z,810.00
2023-05-09T07:23:37.453Z,753.75
2023-05-09T07:24:37.454Z,770.62
2023-05-09T07:25:37.410Z,911.25
2023-05-09T07:26:37.377Z,708.75
2023-05-09T07:27:37.374Z,714.38
2023-05-09T07:28:37.389Z,787.50
2023-05-09T07:29:37.358Z,815.62
2023-05-09T07:30:37.330Z,855.00
2023-05-09T07:31:37.574Z,900.00
2023-05-09T07:32:37.341Z,1006.88
2023-05-09T07:33:37.296Z,984.38
2023-05-09T07:34:36.336Z,945.00
2023-05-09T07:35:37.286Z,911.25
2023-05-09T07:37:37.241Z,894.38
2023-05-09T07:38:37.234Z,905.62
2023-05-09T07:39:36.331Z,928.12
2023-05-09T07:40:37.192Z,961.88
2023-05-09T07:41:37.206Z,990.00
2023-05-09T07:42:37.225Z,1018.12
2023-05-09T07:43:37.171Z,1051.88
2023-05-09T07:44:37.156Z,1091.25
2023-05-09T07:45:37.152Z,1108.12
2023-05-09T07:46:37.109Z,1108.12
2023-05-09T07:47:37.148Z,1063.12
2023-05-09T07:48:37.262Z,1074.38
2023-05-09T07:49:37.058Z,1051.88
2023-05-09T07:50:37.043Z,1012.50
2023-05-09T07:51:37.034Z,961.88
2023-05-09T07:52:37.033Z,945.00
2023-05-09T07:53:37.023Z,1023.75
2023-05-09T07:54:36.998Z,1119.38
2023-05-09T07:55:36.981Z,922.50
2023-05-09T07:56:36.989Z,832.50
2023-05-09T07:57:36.981Z,776.25
2023-05-09T07:58:36.957Z,781.88
2023-05-09T07:59:36.937Z,804.38
2023-05-09T08:00:36.914Z,826.88
2023-05-09T08:01:36.913Z,866.25
2023-05-09T08:02:36.952Z,922.50
2023-05-09T08:03:36.916Z,894.38
2023-05-09T08:04:36.935Z,905.62
2023-05-09T08:05:36.878Z,888.75
2023-05-09T08:06:36.853Z,911.25
2023-05-09T08:07:36.822Z,900.00
2023-05-09T08:08:38.333Z,871.88
2023-05-09T08:09:36.785Z,877.50
2023-05-09T08:10:36.851Z,894.38
2023-05-09T08:11:36.775Z,911.25
2023-05-09T08:12:36.762Z,894.38
2023-05-09T08:13:36.736Z,900.00
2023-05-09T08:14:36.713Z,911.25
2023-05-09T08:15:36.729Z,888.75
2023-05-09T08:16:36.851Z,877.50
2023-05-09T08:17:36.697Z,888.75
2023-05-09T08:18:36.709Z,905.62
2023-05-09T08:19:36.643Z,933.75
2023-05-09T08:20:36.641Z,950.62
2023-05-09T08:21:36.624Z,967.50
2023-05-09T08:22:36.622Z,973.12
2023-05-09T08:23:36.618Z,967.50
2023-05-09T08:24:36.596Z,973.12
2023-05-09T08:25:36.585Z,978.75
2023-05-09T08:26:36.566Z,995.62
2023-05-09T08:27:36.554Z,1018.12
2023-05-09T08:28:36.540Z,1040.62
2023-05-09T08:29:36.530Z,1035.00
2023-05-09T08:30:35.166Z,1018.12
2023-05-09T08:31:36.551Z,1023.75
2023-05-09T08:32:36.503Z,1057.50
2023-05-09T08:33:36.461Z,1074.38
2023-05-09T08:34:36.490Z,1113.75
2023-05-09T08:35:36.436Z,1164.38
2023-05-09T08:36:36.441Z,1175.62
2023-05-09T08:37:36.410Z,1192.50
2023-05-09T08:38:36.410Z,1209.38
2023-05-09T08:39:36.394Z,1226.25
2023-05-09T08:40:36.369Z,1243.12
2023-05-09T08:41:36.353Z,1282.50
2023-05-09T08:42:36.376Z,1288.12
2023-05-09T08:43:36.351Z,1265.62
2023-05-09T08:44:36.350Z,1271.25
2023-05-09T08:45:36.310Z,1254.38
2023-05-09T08:46:36.406Z,1254.38
2023-05-09T08:47:36.289Z,1237.50
2023-05-09T08:48:36.282Z,1248.75
2023-05-09T08:49:36.287Z,1265.62
2023-05-09T08:50:36.244Z,1282.50
2023-05-09T08:51:36.225Z,1366.88
2023-05-09T08:52:35.029Z,1299.38
2023-05-09T08:53:36.207Z,1209.38
2023-05-09T08:54:36.173Z,1226.25
2023-05-09T08:55:36.176Z,1288.12
2023-05-09T08:56:36.146Z,1305.00
2023-05-09T08:57:36.149Z,1316.25
2023-05-09T08:58:36.128Z,1372.50
2023-05-09T08:59:36.108Z,2874.38
2023-05-09T09:00:36.106Z,2874.38
2023-05-09T09:01:36.192Z,2874.38
2023-05-09T09:02:36.150Z,2874.38
2023-05-09T09:03:36.046Z,2874.38
2023-05-09T09:04:36.097Z,2874.38
2023-05-09T09:05:41.943Z,2874.38
2023-05-09T09:06:37.024Z,2874.38
2023-05-09T09:07:36.036Z,2874.38
2023-05-09T09:08:35.999Z,2874.38
2023-05-09T09:09:35.036Z,2874.38
2023-05-09T09:10:35.977Z,2874.38
2023-05-09T09:11:35.949Z,2874.38
2023-05-09T09:12:35.956Z,2874.38
2023-05-09T09:13:35.936Z,2874.38
2023-05-09T09:14:35.913Z,2874.38
2023-05-09T09:15:35.918Z,2874.38
2023-05-09T09:16:35.927Z,2874.38
2023-05-09T09:17:35.920Z,2874.38
2023-05-09T09:18:35.843Z,2874.38
2023-05-09T09:19:35.841Z,2874.38
2023-05-09T09:20:35.881Z,2874.38
2023-05-09T09:21:35.826Z,2874.38
2023-05-09T09:22:35.813Z,2874.38
2023-05-09T09:23:35.823Z,2874.38
2023-05-09T09:24:35.768Z,2874.38
2023-05-09T09:25:35.776Z,2874.38
2023-05-09T09:26:35.758Z,2874.38
2023-05-09T09:27:35.723Z,2874.38
2023-05-09T09:28:35.749Z,2874.38
2023-05-09T09:29:35.732Z,2874.38
2023-05-09T09:30:35.704Z,2874.38
2023-05-09T09:31:35.758Z,2874.38
2023-05-09T09:32:35.750Z,2874.38
2023-05-09T09:33:35.647Z,2874.38
2023-05-09T09:34:35.636Z,2874.38
2023-05-09T09:35:35.651Z,2874.38
2023-05-09T09:36:35.613Z,2874.38
2023-05-09T09:37:34.332Z,2874.38
2023-05-09T09:38:35.591Z,2874.38
2023-05-09T09:39:35.688Z,2874.38
2023-05-09T09:40:35.636Z,2874.38
2023-05-09T09:41:35.566Z,2874.38
2023-05-09T09:42:35.537Z,2874.38
2023-05-09T09:43:35.515Z,2874.38
2023-05-09T09:44:35.521Z,2874.38
2023-05-09T09:45:35.556Z,2874.38
2023-05-09T09:46:35.531Z,2874.38
2023-05-09T09:47:35.489Z,2874.38
2023-05-09T09:48:35.519Z,2874.38
2023-05-09T09:49:35.443Z,2874.38
2023-05-09T09:50:35.434Z,2874.38
2023-05-09T09:51:35.403Z,1383.75
2023-05-09T09:52:35.394Z,1338.75
2023-05-09T09:53:35.384Z,2874.38
2023-05-09T09:54:35.365Z,1355.62
2023-05-09T09:55:35.386Z,1372.50
2023-05-09T09:56:35.351Z,1220.62
2023-05-09T09:57:35.332Z,1243.12
2023-05-09T09:58:35.313Z,2874.38
2023-05-09T09:59:35.335Z,2874.38
2023-05-09T10:00:33.892Z,2874.38
2023-05-09T10:01:35.352Z,2874.38
2023-05-09T10:02:35.271Z,2874.38
2023-05-09T10:03:35.314Z,2874.38
2023-05-09T10:04:35.268Z,2874.38
2023-05-09T10:05:34.748Z,2874.38
2023-05-09T10:06:35.203Z,2874.38
2023-05-09T10:07:34.322Z,2874.38
2023-05-09T10:08:35.171Z,1361.25
2023-05-09T10:09:35.228Z,1428.75
2023-05-09T10:10:34.357Z,2874.38
2023-05-09T10:11:35.162Z,2874.38
2023-05-09T10:12:35.118Z,2874.38
2023-05-09T10:13:35.100Z,2874.38
2023-05-09T10:14:35.286Z,2874.38
2023-05-09T10:15:49.485Z,2874.38
2023-05-09T10:16:43.056Z,2874.38
2023-05-09T10:17:36.172Z,2874.38
2023-05-09T10:18:35.169Z,1417.50
2023-05-09T10:19:35.040Z,2874.38
2023-05-09T10:20:35.010Z,1316.25
2023-05-09T10:21:36.187Z,2874.38
2023-05-09T10:22:34.990Z,2874.38
2023-05-09T10:23:34.988Z,1366.88
2023-05-09T10:24:34.976Z,1248.75
2023-05-09T10:25:34.962Z,1170.00
2023-05-09T10:26:33.478Z,1164.38
2023-05-09T10:27:34.962Z,1231.88
2023-05-09T10:28:34.920Z,1355.62
2023-05-09T10:29:34.946Z,2874.38
2023-05-09T10:30:34.874Z,2874.38
2023-05-09T10:31:33.501Z,2874.38
2023-05-09T10:32:34.901Z,2874.38
2023-05-09T10:33:34.857Z,2874.38
2023-05-09T10:34:33.388Z,2874.38
2023-05-09T10:35:34.830Z,2874.38
2023-05-09T10:36:34.812Z,2874.38
2023-05-09T10:37:34.791Z,2874.38
2023-05-09T10:38:34.821Z,2874.38
2023-05-09T10:39:34.762Z,2874.38
2023-05-09T10:40:34.743Z,2874.38
2023-05-09T10:41:34.745Z,2874.38
2023-05-09T10:42:34.716Z,2874.38
2023-05-09T10:43:36.684Z,2874.38
2023-05-09T10:44:34.742Z,2874.38
2023-05-09T10:45:35.477Z,2874.38
2023-05-09T10:46:34.720Z,2874.38
2023-05-09T10:47:34.682Z,2874.38
2023-05-09T10:48:34.663Z,2874.38
2023-05-09T10:49:36.967Z,2874.38
2023-05-09T10:50:34.606Z,2874.38
2023-05-09T10:51:34.611Z,2874.38
2023-05-09T10:52:34.615Z,2874.38
2023-05-09T10:53:34.580Z,2874.38
2023-05-09T10:54:34.556Z,2874.38
2023-05-09T10:55:34.542Z,2874.38
2023-05-09T10:56:34.528Z,2874.38
2023-05-09T10:57:34.540Z,2874.38
2023-05-09T10:58:34.489Z,2874.38
2023-05-09T10:59:34.489Z,2874.38
2023-05-09T11:00:34.470Z,2874.38
2023-05-09T11:01:34.568Z,2874.38
2023-05-09T11:02:34.469Z,2874.38
2023-05-09T11:03:34.483Z,2874.38
2023-05-09T11:04:34.426Z,2874.38
2023-05-09T11:05:34.411Z,2874.38
2023-05-09T11:06:34.418Z,2874.38
2023-05-09T11:07:34.689Z,2874.38
2023-05-09T11:08:34.441Z,2874.38
2023-05-09T11:09:35.189Z,2874.38
2023-05-09T11:10:34.381Z,2874.38
2023-05-09T11:11:35.129Z,2874.38
2023-05-09T11:12:33.192Z,2874.38
2023-05-09T11:13:34.402Z,2874.38
2023-05-09T11:14:34.328Z,2874.38
2023-05-09T11:15:34.284Z,2874.38
2023-05-09T11:16:34.304Z,2874.38
2023-05-09T11:17:34.262Z,2874.38
2023-05-09T11:18:34.231Z,2874.38
2023-05-09T11:19:34.229Z,2874.38
2023-05-09T11:20:34.213Z,2874.38
2023-05-09T11:21:34.231Z,2874.38
2023-05-09T11:22:32.971Z,2874.38
2023-05-09T11:23:34.170Z,2874.38
2023-05-09T11:24:34.160Z,2874.38
2023-05-09T11:25:34.136Z,2874.38
2023-05-09T11:26:34.146Z,2874.38
2023-05-09T11:27:34.129Z,2874.38
2023-05-09T11:28:34.104Z,2874.38
2023-05-09T11:29:34.094Z,2874.38
2023-05-09T11:30:34.080Z,2874.38
2023-05-09T11:31:34.178Z,2874.38
2023-05-09T11:32:33.141Z,2874.38
2023-05-09T11:33:33.098Z,2874.38
2023-05-09T11:34:34.036Z,2874.38
2023-05-09T11:35:34.011Z,2874.38
2023-05-09T11:36:34.150Z,2874.38
2023-05-09T11:37:33.984Z,2874.38
2023-05-09T11:38:33.956Z,2874.38
2023-05-09T11:39:33.968Z,2874.38
2023-05-09T11:40:33.961Z,2874.38
2023-05-09T11:41:33.939Z,2874.38
2023-05-09T11:42:33.919Z,2874.38
2023-05-09T11:43:33.904Z,2874.38
2023-05-09T11:44:33.901Z,2874.38
2023-05-09T11:45:33.931Z,2874.38
2023-05-09T11:46:34.037Z,2874.38
2023-05-09T11:47:33.860Z,2874.38
2023-05-09T11:48:33.858Z,2874.38
2023-05-09T11:49:33.821Z,2874.38
2023-05-09T11:50:33.820Z,2874.38
2023-05-09T11:51:33.797Z,2874.38
2023-05-09T11:52:33.791Z,2874.38
2023-05-09T11:53:33.784Z,2874.38
2023-05-09T11:54:33.766Z,2874.38
2023-05-09T11:55:33.760Z,2874.38
2023-05-09T11:56:33.737Z,2874.38
2023-05-09T11:57:33.722Z,2874.38
2023-05-09T11:58:33.711Z,2874.38
2023-05-09T11:59:33.698Z,2874.38
2023-05-09T12:00:33.682Z,2874.38
2023-05-09T12:01:33.655Z,2874.38
2023-05-09T12:02:33.731Z,2874.38
2023-05-09T12:03:33.727Z,2874.38
2023-05-09T12:04:33.689Z,2874.38
2023-05-09T12:05:33.619Z,2874.38
2023-05-09T12:06:33.604Z,2874.38
2023-05-09T12:07:33.586Z,2874.38
2023-05-09T12:08:33.591Z,2874.38
2023-05-09T12:09:33.590Z,2874.38
2023-05-09T12:10:33.543Z,2874.38
2023-05-09T12:11:33.527Z,2874.38
2023-05-09T12:12:33.521Z,2874.38
2023-05-09T12:13:33.526Z,2874.38
2023-05-09T12:14:33.505Z,2874.38
2023-05-09T12:15:33.474Z,2874.38
2023-05-09T12:16:33.503Z,2874.38
2023-05-09T12:17:33.480Z,2874.38
2023-05-09T12:18:33.446Z,2874.38
2023-05-09T12:19:33.487Z,2874.38
2023-05-09T12:20:33.424Z,2874.38
2023-05-09T12:21:32.894Z,2874.38
2023-05-09T12:22:32.414Z,2874.38
2023-05-09T12:23:32.419Z,2874.38
2023-05-09T12:24:33.351Z,2874.38
2023-05-09T12:25:33.338Z,2874.38
2023-05-09T12:26:33.323Z,2874.38
2023-05-09T12:27:33.312Z,2874.38
2023-05-09T12:28:33.298Z,2874.38
2023-05-09T12:29:33.283Z,2874.38
2023-05-09T12:30:33.298Z,2874.38
2023-05-09T12:31:33.320Z,2874.38
2023-05-09T12:32:33.264Z,2874.38
2023-05-09T12:33:33.252Z,2874.38
2023-05-09T12:34:32.422Z,2874.38
2023-05-09T12:35:33.202Z,2874.38
2023-05-09T12:36:33.202Z,2874.38
2023-05-09T12:37:33.186Z,2874.38
2023-05-09T12:38:33.195Z,2874.38